createdAt,value
2023-01-18T00:01:20.325Z,43.00
2023-01-18T00:03:48.159Z,36.87
2023-01-18T00:06:16.616Z,50.93
2023-01-18T00:08:43.822Z,48.10
2023-01-18T00:11:17.221Z,46.60
2023-01-18T00:13:44.565Z,54.47
2023-01-18T00:16:15.500Z,52.37
2023-01-18T00:18:43.366Z,55.50
2023-01-18T00:21:12.161Z,46.87
2023-01-18T00:23:40.000Z,46.23
2023-01-18T00:26:09.905Z,55.67
2023-01-18T00:28:38.155Z,62.80
2023-01-18T00:31:18.186Z,84.83
2023-01-18T00:33:47.382Z,89.20
2023-01-18T00:36:16.004Z,109.30
2023-01-18T00:38:44.152Z,94.87
2023-01-18T00:41:12.168Z,96.50
2023-01-18T00:43:40.467Z,91.47
2023-01-18T00:46:13.861Z,105.90
2023-01-18T00:48:42.559Z,82.03
2023-01-18T00:51:13.203Z,78.73
2023-01-18T00:53:41.222Z,69.00
2023-01-18T00:56:11.129Z,69.73
2023-01-18T00:58:38.756Z,75.00
2023-01-18T01:01:07.842Z,80.03
2023-01-18T01:03:53.795Z,71.67
2023-01-18T01:06:46.107Z,73.83
2023-01-18T01:09:27.388Z,76.93
2023-01-18T01:12:14.442Z,70.90
2023-01-18T01:15:03.116Z,66.63
2023-01-18T01:17:51.920Z,74.93
2023-01-18T01:20:38.324Z,72.53
2023-01-18T01:23:34.760Z,76.20
2023-01-18T01:26:06.327Z,74.87
2023-01-18T01:28:45.356Z,67.83
2023-01-18T01:31:15.459Z,70.30
2023-01-18T01:33:43.663Z,68.90
2023-01-18T01:36:12.937Z,71.57
2023-01-18T01:38:44.074Z,91.93
2023-01-18T01:41:29.123Z,91.63
2023-01-18T01:43:58.954Z,135.50
2023-01-18T01:46:46.570Z,140.60
2023-01-18T01:49:16.032Z,81.60
2023-01-18T01:51:46.219Z,60.90
2023-01-18T01:54:49.651Z,68.73
2023-01-18T01:57:25.215Z,94.60
2023-01-18T01:59:58.984Z,87.60
2023-01-18T02:02:26.671Z,78.47
2023-01-18T02:04:55.567Z,86.47
2023-01-18T02:07:26.296Z,81.70
2023-01-18T02:09:54.400Z,77.97
2023-01-18T02:12:22.378Z,67.87
2023-01-18T02:14:49.785Z,74.47
2023-01-18T02:17:16.893Z,74.03
2023-01-18T02:20:19.652Z,83.70
2023-01-18T02:23:21.519Z,71.00
2023-01-18T02:26:13.092Z,66.13
2023-01-18T02:28:44.703Z,63.77
2023-01-18T02:31:18.904Z,64.57
2023-01-18T02:34:02.943Z,63.30
2023-01-18T02:36:57.255Z,78.03
2023-01-18T02:39:42.510Z,67.70
2023-01-18T02:42:40.115Z,67.53
2023-01-18T02:45:40.455Z,60.73
2023-01-18T02:48:10.340Z,61.40
2023-01-18T02:50:37.823Z,63.40
2023-01-18T02:53:05.272Z,57.80
2023-01-18T02:55:50.758Z,64.93
2023-01-18T02:58:39.726Z,69.67
2023-01-18T03:01:23.023Z,65.10
2023-01-18T03:03:52.085Z,60.50
2023-01-18T03:06:22.061Z,64.27
2023-01-18T03:08:52.732Z,86.10
2023-01-18T03:11:50.045Z,83.30
2023-01-18T03:14:50.111Z,60.37
2023-01-18T03:17:39.430Z,76.13
2023-01-18T03:20:11.990Z,128.87
2023-01-18T03:23:22.148Z,119.40
2023-01-18T03:25:52.130Z,94.13
2023-01-18T03:28:41.626Z,70.97
2023-01-18T03:31:35.713Z,63.17
2023-01-18T03:34:14.319Z,58.23
2023-01-18T03:36:49.400Z,55.33
2023-01-18T03:39:40.387Z,60.20
2023-01-18T03:42:18.871Z,59.67
2023-01-18T03:44:58.284Z,69.40
2023-01-18T03:47:26.002Z,53.93
2023-01-18T03:49:53.536Z,57.87
2023-01-18T03:52:24.909Z,55.57
2023-01-18T03:54:54.865Z,60.10
2023-01-18T03:57:33.054Z,59.37
2023-01-18T04:00:01.651Z,54.53
2023-01-18T04:02:29.495Z,59.10
2023-01-18T04:04:58.558Z,80.17
2023-01-18T04:07:26.219Z,91.83
2023-01-18T04:09:53.575Z,88.23
2023-01-18T04:12:21.004Z,78.43
2023-01-18T04:14:48.154Z,78.50
2023-01-18T04:17:15.917Z,70.60
2023-01-18T04:19:43.474Z,73.47
2023-01-18T04:22:11.365Z,69.73
2023-01-18T04:24:38.944Z,84.10
2023-01-18T04:27:06.372Z,81.37
2023-01-18T04:29:33.610Z,83.93
2023-01-18T04:32:01.091Z,113.17
2023-01-18T04:34:28.348Z,125.33
2023-01-18T04:36:56.431Z,113.83
2023-01-18T04:39:23.600Z,128.93
2023-01-18T04:41:51.175Z,182.53
2023-01-18T04:44:18.357Z,318.53
2023-01-18T04:46:45.942Z,351.17
2023-01-18T04:49:15.635Z,363.53
2023-01-18T04:51:45.289Z,343.37
2023-01-18T04:54:15.607Z,394.67
2023-01-18T04:56:43.152Z,455.33
2023-01-18T04:59:15.920Z,428.50
2023-01-18T05:01:43.961Z,276.40
2023-01-18T05:04:11.651Z,170.57
2023-01-18T05:06:39.561Z,143.27
2023-01-18T05:09:07.270Z,122.70
2023-01-18T05:11:35.081Z,117.40
2023-01-18T05:14:02.734Z,115.90
2023-01-18T05:16:30.670Z,115.63
2023-01-18T05:18:58.398Z,124.43
2023-01-18T05:21:26.552Z,113.30
2023-01-18T05:23:54.875Z,104.03
2023-01-18T05:26:23.898Z,111.57
2023-01-18T05:28:51.819Z,103.47
2023-01-18T05:31:21.396Z,110.67
2023-01-18T05:33:49.319Z,105.17
2023-01-18T05:36:17.305Z,97.60
2023-01-18T05:38:44.872Z,114.63
2023-01-18T05:41:12.695Z,98.57
2023-01-18T05:43:40.624Z,96.27
2023-01-18T05:46:08.644Z,100.83
2023-01-18T05:48:36.394Z,107.83
2023-01-18T05:51:09.384Z,102.70
2023-01-18T05:53:37.139Z,119.47
2023-01-18T05:56:06.641Z,127.10
2023-01-18T05:58:34.722Z,131.93
2023-01-18T06:01:02.637Z,168.67
2023-01-18T06:03:30.355Z,178.50
2023-01-18T06:05:59.384Z,129.20
2023-01-18T06:08:27.000Z,137.87
2023-01-18T06:10:55.869Z,142.30
2023-01-18T06:13:24.469Z,195.60
2023-01-18T06:15:54.755Z,174.97
2023-01-18T06:18:22.934Z,210.30
2023-01-18T06:20:51.736Z,163.40
2023-01-18T06:23:19.493Z,149.57
2023-01-18T06:25:47.404Z,142.37
2023-01-18T06:28:15.044Z,115.37
2023-01-18T06:30:43.134Z,102.30
2023-01-18T06:33:10.882Z,128.07
2023-01-18T06:35:38.965Z,129.73
2023-01-18T06:38:06.653Z,101.73
2023-01-18T06:40:34.596Z,115.37
2023-01-18T06:43:02.388Z,137.27
2023-01-18T06:45:30.534Z,133.77
2023-01-18T06:47:58.221Z,130.97
2023-01-18T06:50:26.270Z,153.00
2023-01-18T06:52:55.935Z,151.17
2023-01-18T06:55:24.250Z,153.43
2023-01-18T06:57:51.839Z,179.07
2023-01-18T07:00:20.030Z,200.93
2023-01-18T07:02:47.687Z,207.50
2023-01-18T07:05:15.895Z,240.83
2023-01-18T07:07:43.546Z,264.80
2023-01-18T07:10:11.628Z,274.43
2023-01-18T07:12:39.209Z,271.50
2023-01-18T07:15:20.884Z,270.50
2023-01-18T07:17:50.581Z,229.97
2023-01-18T07:20:19.985Z,199.27
2023-01-18T07:22:51.921Z,206.33
2023-01-18T07:25:20.929Z,174.40
2023-01-18T07:27:49.259Z,195.23
2023-01-18T07:30:17.759Z,194.70
2023-01-18T07:32:51.216Z,228.50
2023-01-18T07:35:22.225Z,323.33
2023-01-18T07:37:52.436Z,350.53
2023-01-18T07:40:23.197Z,346.03
2023-01-18T07:42:57.419Z,311.33
2023-01-18T07:45:25.808Z,254.53
2023-01-18T07:47:53.638Z,231.17
2023-01-18T07:50:22.578Z,222.20
2023-01-18T07:52:50.366Z,218.30
2023-01-18T07:55:18.418Z,237.53
2023-01-18T07:57:46.122Z,257.67
2023-01-18T08:00:14.989Z,258.50
2023-01-18T08:02:42.883Z,266.50
2023-01-18T08:05:11.764Z,248.53
2023-01-18T08:07:39.531Z,267.87
2023-01-18T08:10:07.749Z,289.73
2023-01-18T08:12:35.539Z,393.13
2023-01-18T08:15:04.634Z,409.07
2023-01-18T08:17:32.298Z,341.07
2023-01-18T08:20:00.436Z,284.40
2023-01-18T08:22:28.206Z,274.57
2023-01-18T08:24:56.112Z,357.23
2023-01-18T08:27:25.777Z,373.53
2023-01-18T08:29:55.257Z,378.20
2023-01-18T08:32:23.981Z,348.10
2023-01-18T08:34:52.789Z,372.30
2023-01-18T08:37:20.442Z,387.10
2023-01-18T08:39:48.331Z,375.50
2023-01-18T08:42:16.285Z,370.30
2023-01-18T08:44:44.237Z,372.07
2023-01-18T08:47:12.171Z,413.33
2023-01-18T08:49:40.315Z,397.27
2023-01-18T08:52:10.944Z,324.33
2023-01-18T08:54:38.960Z,299.40
2023-01-18T08:57:08.097Z,253.07
2023-01-18T08:59:36.224Z,225.47
2023-01-18T09:02:03.912Z,178.63
2023-01-18T09:04:31.908Z,154.80
2023-01-18T09:06:59.869Z,137.17
2023-01-18T09:09:27.869Z,116.63
2023-01-18T09:11:57.089Z,100.47
2023-01-18T09:14:24.995Z,98.97
2023-01-18T09:16:52.685Z,95.20
2023-01-18T09:19:20.609Z,91.60
2023-01-18T09:21:49.955Z,106.10
2023-01-18T09:24:18.211Z,102.67
2023-01-18T09:26:47.431Z,97.30
2023-01-18T09:29:16.489Z,109.53
2023-01-18T09:31:44.201Z,136.93
2023-01-18T09:34:19.305Z,90.47
2023-01-18T09:36:51.102Z,66.13
2023-01-18T09:39:22.918Z,61.53
2023-01-18T09:41:55.663Z,62.70
2023-01-18T09:44:34.256Z,61.03
2023-01-18T09:47:03.077Z,57.80
2023-01-18T09:49:55.183Z,53.57
2023-01-18T09:52:29.320Z,57.43
2023-01-18T09:55:03.842Z,52.47
2023-01-18T09:57:45.982Z,51.53
2023-01-18T10:00:19.895Z,82.47
2023-01-18T10:02:49.232Z,68.87
2023-01-18T10:05:37.263Z,135.10
2023-01-18T10:08:13.642Z,83.43
2023-01-18T10:10:52.425Z,78.10
2023-01-18T10:13:23.358Z,105.30
2023-01-18T10:15:51.940Z,126.10
2023-01-18T10:18:20.766Z,136.43
2023-01-18T10:20:49.454Z,126.77
2023-01-18T10:23:49.236Z,114.70
2023-01-18T10:26:28.027Z,60.33
2023-01-18T10:29:02.675Z,57.63
2023-01-18T10:32:00.546Z,47.47
2023-01-18T10:34:32.640Z,50.20
2023-01-18T10:37:15.011Z,49.70
2023-01-18T10:39:51.890Z,49.47
2023-01-18T10:42:25.867Z,59.70
2023-01-18T10:44:53.621Z,49.87
2023-01-18T10:47:22.355Z,53.23
2023-01-18T10:49:59.278Z,53.67
2023-01-18T10:52:28.926Z,57.67
2023-01-18T10:55:03.911Z,52.67
2023-01-18T10:57:35.123Z,56.40
2023-01-18T11:00:03.813Z,51.13
2023-01-18T11:02:35.577Z,51.53
2023-01-18T11:05:21.315Z,51.03
2023-01-18T11:08:23.164Z,56.03
2023-01-18T11:11:01.620Z,50.03
2023-01-18T11:13:34.381Z,45.07
2023-01-18T11:16:22.601Z,55.67
2023-01-18T11:19:00.067Z,48.10
2023-01-18T11:21:30.774Z,52.27
2023-01-18T11:23:58.899Z,52.90
2023-01-18T11:26:29.579Z,52.80
2023-01-18T11:29:07.459Z,51.03
2023-01-18T11:31:48.516Z,52.83
2023-01-18T11:34:22.933Z,54.87
2023-01-18T11:36:50.952Z,58.43
2023-01-18T11:39:28.190Z,68.67
2023-01-18T11:42:11.316Z,67.63
2023-01-18T11:44:43.260Z,66.77
2023-01-18T11:47:16.126Z,68.20
2023-01-18T11:49:47.385Z,61.30
2023-01-18T11:52:22.971Z,61.73
2023-01-18T11:54:54.231Z,66.37
2023-01-18T11:57:21.947Z,69.33
2023-01-18T11:59:49.906Z,58.97
2023-01-18T12:02:23.636Z,67.87
2023-01-18T12:05:12.073Z,71.70
2023-01-18T12:07:44.765Z,91.87
2023-01-18T12:10:22.326Z,78.90
2023-01-18T12:12:59.475Z,81.17
2023-01-18T12:15:42.806Z,92.57
2023-01-18T12:18:22.672Z,82.77
2023-01-18T12:21:02.708Z,83.43
2023-01-18T12:23:33.451Z,84.93
2023-01-18T12:26:12.658Z,88.30
2023-01-18T12:29:09.784Z,83.07
2023-01-18T12:31:38.432Z,74.77
2023-01-18T12:34:10.269Z,85.43
2023-01-18T12:36:54.832Z,78.03
2023-01-18T12:39:40.630Z,74.83
2023-01-18T12:42:15.361Z,65.00
2023-01-18T12:45:07.559Z,71.03
2023-01-18T12:47:40.777Z,66.83
2023-01-18T12:50:09.371Z,65.13
2023-01-18T12:52:41.387Z,57.80
2023-01-18T12:55:16.544Z,62.23
2023-01-18T12:57:46.678Z,63.77
2023-01-18T13:00:21.386Z,62.93
2023-01-18T13:02:56.182Z,102.53
2023-01-18T13:05:43.617Z,93.47
2023-01-18T13:15:27.161Z,80.63
2023-01-18T13:17:59.369Z,73.73
2023-01-18T13:20:35.572Z,69.53
2023-01-18T13:23:03.703Z,79.70
2023-01-18T13:26:02.431Z,72.70
2023-01-18T13:28:30.578Z,80.30
2023-01-18T13:31:02.252Z,99.53
2023-01-18T13:33:39.633Z,75.03
2023-01-18T13:36:12.570Z,67.10
2023-01-18T13:39:07.826Z,68.33
2023-01-18T13:41:36.778Z,72.87
2023-01-18T13:44:06.382Z,108.93
2023-01-18T13:46:39.707Z,113.40
2023-01-18T13:49:36.675Z,112.03
2023-01-18T13:52:34.789Z,113.40
2023-01-18T13:55:06.840Z,118.40
2023-01-18T13:57:35.474Z,100.70
2023-01-18T14:00:05.746Z,127.70
2023-01-18T14:02:45.442Z,133.03
2023-01-18T14:05:20.231Z,129.60
2023-01-18T14:07:50.190Z,117.80
2023-01-18T14:10:25.504Z,122.77
2023-01-18T14:12:55.415Z,144.17
2023-01-18T14:15:46.621Z,137.63
2023-01-18T14:18:25.025Z,134.33
2023-01-18T14:21:09.323Z,249.97
2023-01-18T14:23:56.378Z,232.97
2023-01-18T14:26:28.651Z,255.10
2023-01-18T14:29:00.616Z,235.70
2023-01-18T14:31:38.311Z,240.93
2023-01-18T14:34:25.785Z,274.20
2023-01-18T14:36:53.562Z,200.70
2023-01-18T14:39:23.230Z,188.03
2023-01-18T14:42:05.860Z,186.93
2023-01-18T14:44:33.873Z,176.60
2023-01-18T14:47:18.622Z,165.00
2023-01-18T14:49:51.148Z,172.93
2023-01-18T14:52:19.545Z,184.93
2023-01-18T14:54:51.119Z,271.37
2023-01-18T14:57:19.220Z,273.80
2023-01-18T14:59:52.600Z,231.93
2023-01-18T15:02:25.323Z,222.33
2023-01-18T15:05:11.107Z,238.47
2023-01-18T15:07:39.881Z,258.40
2023-01-18T15:10:08.671Z,249.03
2023-01-18T15:12:36.821Z,257.37
2023-01-18T15:15:07.610Z,226.63
2023-01-18T15:17:37.187Z,288.07
2023-01-18T15:20:07.543Z,251.27
2023-01-18T15:22:38.100Z,283.90
2023-01-18T15:25:08.430Z,265.87
2023-01-18T15:27:36.974Z,254.30
2023-01-18T15:30:12.624Z,239.67
2023-01-18T15:32:41.043Z,198.70
2023-01-18T15:35:13.866Z,191.57
2023-01-18T15:37:42.199Z,195.70
2023-01-18T15:40:13.253Z,183.47
2023-01-18T15:42:46.349Z,206.67
2023-01-18T15:45:22.418Z,191.60
2023-01-18T15:47:54.500Z,181.43
2023-01-18T15:50:24.348Z,168.70
2023-01-18T15:53:02.154Z,143.30
2023-01-18T15:55:32.808Z,150.17
2023-01-18T15:58:12.847Z,122.17
2023-01-18T16:00:43.479Z,223.77
2023-01-18T16:03:22.390Z,226.13
2023-01-18T16:05:57.569Z,238.80
2023-01-18T16:08:25.676Z,266.17
2023-01-18T16:10:54.851Z,247.80
2023-01-18T16:13:28.735Z,242.63
2023-01-18T16:16:02.763Z,241.60
2023-01-18T16:18:30.619Z,258.13
2023-01-18T16:20:59.963Z,246.70
2023-01-18T16:23:28.067Z,231.60
2023-01-18T16:26:02.876Z,235.20
2023-01-18T16:28:30.569Z,292.00
2023-01-18T16:31:03.536Z,345.57
2023-01-18T16:33:31.636Z,402.93
2023-01-18T16:35:59.835Z,390.23
2023-01-18T16:38:27.470Z,367.83
2023-01-18T16:40:55.512Z,332.17
2023-01-18T16:43:24.433Z,322.83
2023-01-18T16:45:53.530Z,268.33
2023-01-18T16:48:26.928Z,233.37
2023-01-18T16:51:00.586Z,204.60
2023-01-18T16:53:29.068Z,189.83
2023-01-18T16:55:57.460Z,179.23
2023-01-18T16:58:26.488Z,150.00
2023-01-18T17:01:03.324Z,159.07
2023-01-18T17:03:31.142Z,138.60
2023-01-18T17:05:59.201Z,138.17
2023-01-18T17:08:26.928Z,134.50
2023-01-18T17:10:55.132Z,114.40
2023-01-18T17:13:23.903Z,125.73
2023-01-18T17:15:52.858Z,151.73
2023-01-18T17:18:24.065Z,148.50
2023-01-18T17:20:52.664Z,180.13
2023-01-18T17:23:20.825Z,234.00
2023-01-18T17:25:49.450Z,272.53
2023-01-18T17:28:18.596Z,291.53
2023-01-18T17:30:48.387Z,277.90
2023-01-18T17:33:18.207Z,217.47
2023-01-18T17:35:46.644Z,127.67
2023-01-18T17:38:23.125Z,109.10
2023-01-18T17:40:52.141Z,108.70
2023-01-18T17:43:32.214Z,94.70
2023-01-18T17:46:03.670Z,97.97
2023-01-18T17:48:31.518Z,100.20
2023-01-18T17:50:59.530Z,89.43
2023-01-18T17:53:27.655Z,101.63
2023-01-18T17:55:56.869Z,127.97
2023-01-18T17:58:24.810Z,102.23
2023-01-18T18:00:53.128Z,98.13
2023-01-18T18:03:20.850Z,92.00
2023-01-18T18:05:49.122Z,82.27
2023-01-18T18:08:18.440Z,88.07
2023-01-18T18:10:46.387Z,82.53
2023-01-18T18:13:14.036Z,83.80
2023-01-18T18:15:46.047Z,87.53
2023-01-18T18:18:22.662Z,91.97
2023-01-18T18:21:03.317Z,95.87
2023-01-18T18:23:31.565Z,90.30
2023-01-18T18:26:00.259Z,84.47
2023-01-18T18:28:29.660Z,83.33
2023-01-18T18:30:58.726Z,76.93
2023-01-18T18:33:27.379Z,68.33
2023-01-18T18:35:55.664Z,62.47
2023-01-18T18:38:23.879Z,63.63
2023-01-18T18:40:52.249Z,58.40
2023-01-18T18:43:20.855Z,61.80
2023-01-18T18:45:49.305Z,61.80
2023-01-18T18:48:17.101Z,65.87
2023-01-18T18:50:48.030Z,62.57
2023-01-18T18:53:16.889Z,68.27
2023-01-18T18:55:45.613Z,68.93
2023-01-18T18:58:13.485Z,68.50
2023-01-18T19:00:41.457Z,76.47
2023-01-18T19:03:09.821Z,85.50
2023-01-18T19:05:39.573Z,88.53
2023-01-18T19:08:07.430Z,107.37
2023-01-18T19:10:35.466Z,96.07
2023-01-18T19:13:05.008Z,90.23
2023-01-18T19:15:33.129Z,82.33
2023-01-18T19:18:00.811Z,76.97
2023-01-18T19:20:29.035Z,76.93
2023-01-18T19:22:57.063Z,71.07
2023-01-18T19:25:26.088Z,80.40
2023-01-18T19:27:54.064Z,76.23
2023-01-18T19:30:22.630Z,71.03
2023-01-18T19:32:51.035Z,69.17
2023-01-18T19:35:20.066Z,66.77
2023-01-18T19:37:48.384Z,70.07
2023-01-18T19:40:17.816Z,67.80
2023-01-18T19:42:47.207Z,66.33
2023-01-18T19:45:23.133Z,68.23
2023-01-18T19:47:55.745Z,68.60
2023-01-18T19:50:24.266Z,60.27
2023-01-18T19:52:52.540Z,79.87
2023-01-18T19:55:21.881Z,88.57
2023-01-18T19:57:52.522Z,67.97
2023-01-18T20:00:21.453Z,59.37
2023-01-18T20:02:49.632Z,67.37
2023-01-18T20:05:18.379Z,71.63
2023-01-18T20:07:46.485Z,61.17
2023-01-18T20:10:16.847Z,67.87
2023-01-18T20:12:45.150Z,57.80
2023-01-18T20:15:15.876Z,59.63
2023-01-18T20:17:44.859Z,58.40
2023-01-18T20:20:20.978Z,62.30
2023-01-18T20:22:55.493Z,58.70
2023-01-18T20:25:24.543Z,65.70
2023-01-18T20:27:52.553Z,60.87
2023-01-18T20:30:20.981Z,64.57
2023-01-18T20:32:49.233Z,65.03
2023-01-18T20:35:18.129Z,60.87
2023-01-18T20:37:46.045Z,60.77
2023-01-18T20:40:15.875Z,55.97
2023-01-18T20:42:45.210Z,58.67
2023-01-18T20:45:15.058Z,62.73
2023-01-18T20:47:44.914Z,59.27
2023-01-18T20:50:13.477Z,56.17
2023-01-18T20:52:42.292Z,58.93
2023-01-18T20:55:13.538Z,59.03
2023-01-18T20:57:42.194Z,56.93
2023-01-18T21:00:12.738Z,55.43
2023-01-18T21:02:43.077Z,66.73
2023-01-18T21:05:12.693Z,85.53
2023-01-18T21:07:41.840Z,108.27
2023-01-18T21:10:11.684Z,102.93
2023-01-18T21:12:41.509Z,86.77
2023-01-18T21:15:10.402Z,66.80
2023-01-18T21:17:40.442Z,63.03
2023-01-18T21:20:09.191Z,59.97
2023-01-18T21:22:37.677Z,56.60
2023-01-18T21:25:06.224Z,60.53
2023-01-18T21:27:36.214Z,56.40
2023-01-18T21:30:05.043Z,53.30
2023-01-18T21:32:32.985Z,58.23
2023-01-18T21:35:01.128Z,58.77
2023-01-18T21:37:28.977Z,52.30
2023-01-18T21:39:58.370Z,54.03
2023-01-18T21:42:45.073Z,60.27
2023-01-18T21:45:32.334Z,62.77
2023-01-18T21:48:01.147Z,57.90
2023-01-18T21:50:48.280Z,54.10
2023-01-18T21:53:35.334Z,53.00
2023-01-18T21:56:03.832Z,58.47
2023-01-18T21:58:50.952Z,52.30
2023-01-18T22:01:22.346Z,65.80
2023-01-18T22:04:12.912Z,63.07
2023-01-18T22:06:41.497Z,64.83
2023-01-18T22:09:09.321Z,59.57
2023-01-18T22:11:37.860Z,61.47
2023-01-18T22:14:06.772Z,66.20
2023-01-18T22:16:35.347Z,71.57
2023-01-18T22:19:05.079Z,64.83
2023-01-18T22:21:33.712Z,60.47
2023-01-18T22:24:01.614Z,56.53
2023-01-18T22:26:30.612Z,57.20
2023-01-18T22:28:58.526Z,55.57
2023-01-18T22:31:27.355Z,57.30
2023-01-18T22:33:56.115Z,54.80
2023-01-18T22:36:24.627Z,59.20
2023-01-18T22:38:54.071Z,55.70
2023-01-18T22:41:23.833Z,55.00
2023-01-18T22:43:51.840Z,61.17
2023-01-18T22:46:20.720Z,55.60
2023-01-18T22:48:48.833Z,62.13
2023-01-18T22:51:17.972Z,55.17
2023-01-18T22:53:45.954Z,60.93
2023-01-18T22:56:15.491Z,56.03
2023-01-18T22:58:43.680Z,66.07
2023-01-18T23:01:19.366Z,87.03
2023-01-18T23:03:47.275Z,89.77
2023-01-18T23:06:15.667Z,76.40
2023-01-18T23:08:43.610Z,89.20
2023-01-18T23:11:19.487Z,92.17
2023-01-18T23:14:10.709Z,85.93
2023-01-18T23:16:58.114Z,78.47
2023-01-18T23:19:28.141Z,78.30
2023-01-18T23:21:57.616Z,79.13
2023-01-18T23:24:25.834Z,71.60
2023-01-18T23:26:53.915Z,75.03
2023-01-18T23:29:21.560Z,77.10
2023-01-18T23:31:49.614Z,69.97
2023-01-18T23:34:17.506Z,75.93
2023-01-18T23:36:45.476Z,71.27
2023-01-18T23:39:31.639Z,67.63
2023-01-18T23:42:18.543Z,72.80
2023-01-18T23:45:04.913Z,70.60
2023-01-18T23:47:51.431Z,64.93
2023-01-18T23:50:37.682Z,63.17
2023-01-18T23:53:24.633Z,69.17
2023-01-18T23:55:53.273Z,58.00
2023-01-18T23:58:21.275Z,68.57
